Time;durP1;ratioP1;P1;durP2;ratioP2;P2;SDS_P1;SDS_P2;PMS_P1;PMS_P2;Temp;Humidity;BMP_temperature;BMP_pressure;BME280_temperature;BME280_humidity;BME280_pressure;Samples;Min_cycle;Max_cycle;Signal;HPM_P1;HPM_P2
2022/01/03 00:00:33;;;;;;;4.15;2.10;;;;;;;;;;2068001;28;20169;-57
2022/01/03 00:01:34;;;;;;;5.80;2.30;;;;;;;;;;2078540;28;20573;-58
2022/01/03 00:02:35;;;;;;;6.25;2.08;;;;;;;;;;2076534;28;20173;-54
2022/01/03 00:03:35;;;;;;;6.95;2.25;;;;;;;;;;2077892;28;20183;-58
2022/01/03 00:04:35;;;;;;;4.78;1.55;;;;;;;;;;2075858;28;20633;-56
2022/01/03 00:05:35;;;;;;;5.03;2.30;;;;;;;;;;2080164;28;20248;-58
2022/01/03 00:06:36;;;;;;;4.60;2.05;;;;;;;;;;2077016;28;20171;-60
2022/01/03 00:07:38;;;;;;;4.03;2.10;;;;;;;;;;2069983;28;20187;-57
2022/01/03 00:08:41;;;;;;;1.90;1.70;;;;;;;;;;2071654;28;20171;-56
2022/01/03 00:09:41;;;;;;;4.18;2.40;;;;;;;;;;2077676;28;20642;-55
2022/01/03 00:10:41;;;;;;;6.20;2.22;;;;;;;;;;2077341;28;20205;-57
2022/01/03 00:11:42;;;;;;;2.05;1.70;;;;;;;;;;2080531;28;20196;-58
2022/01/03 00:12:42;;;;;;;3.55;1.60;;;;;;;;;;2079474;28;20191;-54
2022/01/03 00:13:43;;;;;;;3.05;2.50;;;;;;;;;;2077578;28;20196;-58
2022/01/03 00:14:44;;;;;;;4.15;1.95;;;;;;;;;;2071281;28;20212;-58
2022/01/03 00:15:44;;;;;;;2.70;1.92;;;;;;;;;;2072184;28;20185;-56
2022/01/03 00:16:44;;;;;;;4.15;2.15;;;;;;;;;;2075946;28;20189;-58
2022/01/03 00:17:46;;;;;;;4.03;2.55;;;;;;;;;;2079038;28;20172;-57
2022/01/03 00:18:47;;;;;;;6.50;2.40;;;;;;;;;;2071763;28;20189;-59
2022/01/03 00:19:47;;;;;;;5.35;2.15;;;;;;;;;;2070269;28;20181;-54
2022/01/03 00:20:58;;;;;;;4.55;1.50;;;;;;;;;;2070721;28;20234;-57
2022/01/03 00:22:03;;;;;;;5.82;2.33;;;;;;;;;;2077862;28;20256;-56
2022/01/03 00:23:06;;;;;;;5.43;2.70;;;;;;;;;;2069112;28;20259;-59
2022/01/03 00:24:08;;;;;;;2.28;1.92;;;;;;;;;;2071428;28;20178;-57
2022/01/03 00:25:15;;;;;;;4.25;2.20;;;;;;;;;;2078822;28;20696;-54
2022/01/03 00:26:19;;;;;;;6.07;2.10;;;;;;;;;;2078133;28;20241;-59
2022/01/03 00:27:22;;;;;;;3.58;2.45;;;;;;;;;;2079998;28;20238;-59
2022/01/03 00:28:30;;;;;;;9.32;2.63;;;;;;;;;;2081403;28;20183;-59
2022/01/03 00:29:42;;;;;;;6.70;2.65;;;;;;;;;;2079746;28;20575;-58
2022/01/03 00:30:44;;;;;;;6.15;2.10;;;;;;;;;;2079196;28;20173;-58
2022/01/03 00:31:44;;;;;;;4.88;2.20;;;;;;;;;;2077865;28;20204;-60
2022/01/03 00:32:47;;;;;;;7.53;2.20;;;;;;;;;;2073568;28;20177;-60
2022/01/03 00:33:49;;;;;;;3.85;2.15;;;;;;;;;;2069026;28;20602;-57
2022/01/03 00:34:51;;;;;;;3.88;2.15;;;;;;;;;;2074103;28;20747;-56
2022/01/03 00:35:58;;;;;;;6.00;2.72;;;;;;;;;;2078918;28;20164;-59
2022/01/03 00:36:59;;;;;;;6.38;2.42;;;;;;;;;;2077346;28;20172;-58
2022/01/03 00:38:00;;;;;;;6.25;2.58;;;;;;;;;;2077311;28;20657;-57
2022/01/03 00:39:01;;;;;;;9.90;2.13;;;;;;;;;;2075162;28;20199;-58
2022/01/03 00:40:02;;;;;;;6.53;2.40;;;;;;;;;;2071276;28;20173;-59
2022/01/03 00:41:03;;;;;;;4.70;2.20;;;;;;;;;;2072535;28;20180;-57
2022/01/03 00:42:03;;;;;;;10.30;2.78;;;;;;;;;;2081259;28;20172;-54
2022/01/03 00:43:04;;;;;;;5.40;2.53;;;;;;;;;;2068365;28;20177;-59
2022/01/03 00:44:05;;;;;;;7.43;2.40;;;;;;;;;;2067853;28;20200;-55
2022/01/03 00:45:06;;;;;;;5.63;2.22;;;;;;;;;;2082741;28;20663;-57
2022/01/03 00:46:06;;;;;;;6.10;2.33;;;;;;;;;;2084145;28;20203;-58
2022/01/03 00:47:06;;;;;;;12.05;3.05;;;;;;;;;;2079335;28;20188;-57
2022/01/03 00:48:07;;;;;;;6.50;2.70;;;;;;;;;;2078578;28;20665;-55
2022/01/03 00:49:08;;;;;;;4.75;2.40;;;;;;;;;;2079074;28;20893;-59
2022/01/03 00:50:10;;;;;;;4.53;2.42;;;;;;;;;;2070891;28;20216;-59
2022/01/03 00:51:13;;;;;;;5.63;2.30;;;;;;;;;;2068241;28;20222;-57
2022/01/03 00:52:14;;;;;;;5.22;2.15;;;;;;;;;;2073302;28;20654;-58
2022/01/03 00:53:14;;;;;;;7.47;2.65;;;;;;;;;;2080586;28;20177;-59
2022/01/03 00:54:14;;;;;;;5.95;2.63;;;;;;;;;;2081376;28;20215;-59
2022/01/03 00:55:15;;;;;;;6.00;2.47;;;;;;;;;;2081897;28;20214;-57
2022/01/03 00:56:22;;;;;;;6.45;2.38;;;;;;;;;;2072934;28;20223;-57
2022/01/03 00:57:36;;;;;;;2.78;2.08;;;;;;;;;;2077822;28;20168;-58
2022/01/03 00:58:45;;;;;;;4.47;1.90;;;;;;;;;;2079264;28;20263;-59
2022/01/03 00:59:51;;;;;;;6.22;2.42;;;;;;;;;;2072966;28;20227;-58
2022/01/03 01:00:54;;;;;;;9.55;2.90;;;;;;;;;;2069472;28;20193;-56
2022/01/03 01:01:58;;;;;;;6.03;2.75;;;;;;;;;;2077993;28;20175;-58
2022/01/03 01:03:05;;;;;;;7.63;2.45;;;;;;;;;;2071834;28;20638;-59
2022/01/03 01:04:07;;;;;;;4.80;2.30;;;;;;;;;;2062210;28;20304;-58
2022/01/03 01:05:08;;;;;;;7.68;2.17;;;;;;;;;;2069758;28;20174;-58
2022/01/03 01:06:08;;;;;;;7.63;2.72;;;;;;;;;;2076694;28;20271;-56
2022/01/03 01:07:09;;;;;;;5.30;2.30;;;;;;;;;;2070706;28;20197;-57
2022/01/03 01:08:11;;;;;;;5.90;2.10;;;;;;;;;;2070597;28;20174;-57
2022/01/03 01:09:14;;;;;;;7.25;2.72;;;;;;;;;;2072037;28;20205;-55
2022/01/03 01:10:15;;;;;;;4.35;2.03;;;;;;;;;;2078957;28;20521;-58
2022/01/03 01:11:16;;;;;;;6.63;2.65;;;;;;;;;;2077326;28;20191;-58
2022/01/03 01:12:20;;;;;;;8.40;2.92;;;;;;;;;;2073093;28;20553;-58
2022/01/03 01:13:21;;;;;;;4.20;2.53;;;;;;;;;;2078328;28;20176;-58
2022/01/03 01:14:23;;;;;;;12.25;2.88;;;;;;;;;;2080711;28;20586;-58
2022/01/03 01:15:27;;;;;;;5.90;2.63;;;;;;;;;;2073426;28;20173;-57
2022/01/03 01:16:28;;;;;;;7.53;2.70;;;;;;;;;;2074523;28;20820;-58
2022/01/03 01:17:28;;;;;;;6.25;2.63;;;;;;;;;;2072247;28;20273;-60
2022/01/03 01:18:31;;;;;;;5.75;2.67;;;;;;;;;;2073941;28;20181;-59
2022/01/03 01:19:32;;;;;;;7.72;2.60;;;;;;;;;;2065901;28;20217;-59
2022/01/03 01:20:35;;;;;;;7.45;2.50;;;;;;;;;;2074011;28;20173;-59
2022/01/03 01:21:35;;;;;;;4.22;2.88;;;;;;;;;;2080513;28;20199;-59
2022/01/03 01:22:35;;;;;;;7.63;3.00;;;;;;;;;;2077195;28;20779;-56
2022/01/03 01:23:39;;;;;;;6.22;2.40;;;;;;;;;;2079594;28;20184;-58
2022/01/03 01:25:09;;;;;;;8.55;2.88;;;;;;;;;;2069080;28;20176;-58
2022/01/03 01:28:41;;;;;;;5.85;2.40;;;;;;;;;;2078699;28;20178;-57
2022/01/03 01:29:44;;;;;;;6.40;3.33;;;;;;;;;;2072011;28;20199;-57
2022/01/03 01:30:48;;;;;;;7.90;2.70;;;;;;;;;;2073613;28;20641;-58
2022/01/03 01:31:50;;;;;;;4.93;2.40;;;;;;;;;;2070338;28;20165;-59
2022/01/03 01:33:01;;;;;;;5.93;2.38;;;;;;;;;;2065030;28;20200;-58
2022/01/03 01:34:03;;;;;;;13.85;3.20;;;;;;;;;;2065497;28;20232;-54
2022/01/03 01:35:04;;;;;;;5.95;2.78;;;;;;;;;;2070797;28;20184;-58
2022/01/03 01:36:05;;;;;;;7.18;3.30;;;;;;;;;;2072289;28;20217;-54
2022/01/03 01:37:08;;;;;;;7.40;3.05;;;;;;;;;;2065506;28;20180;-57
2022/01/03 01:38:13;;;;;;;7.07;2.90;;;;;;;;;;2067028;28;20173;-57
2022/01/03 01:39:15;;;;;;;7.03;3.22;;;;;;;;;;2069042;28;20172;-57
2022/01/03 01:40:17;;;;;;;11.25;3.55;;;;;;;;;;2072537;28;20660;-56
2022/01/03 01:41:19;;;;;;;4.22;2.55;;;;;;;;;;2071765;28;20208;-60
2022/01/03 01:42:23;;;;;;;5.85;2.78;;;;;;;;;;2064562;28;20227;-57
2022/01/03 01:43:35;;;;;;;9.27;2.63;;;;;;;;;;2055331;28;20187;-58
2022/01/03 01:44:37;;;;;;;6.40;2.70;;;;;;;;;;2064022;28;20216;-59
2022/01/03 01:45:40;;;;;;;8.10;2.70;;;;;;;;;;2072307;28;20174;-60
2022/01/03 01:46:46;;;;;;;12.90;3.17;;;;;;;;;;2072046;28;20180;-62
2022/01/03 01:47:48;;;;;;;6.88;3.05;;;;;;;;;;2067990;28;20215;-58
2022/01/03 01:48:49;;;;;;;6.70;2.90;;;;;;;;;;2062207;28;20609;-57
2022/01/03 01:49:53;;;;;;;5.97;2.92;;;;;;;;;;2065301;28;20165;-59
2022/01/03 01:50:55;;;;;;;9.05;3.08;;;;;;;;;;2071741;28;20181;-57
2022/01/03 01:51:58;;;;;;;9.85;3.25;;;;;;;;;;2081971;22;20315;-63
2022/01/03 01:52:59;;;;;;;11.90;3.40;;;;;;;;;;2069153;28;20727;-60
2022/01/03 01:54:04;;;;;;;7.40;3.10;;;;;;;;;;2086349;28;20176;-61
2022/01/03 01:55:08;;;;;;;11.02;3.20;;;;;;;;;;2078507;28;20164;-63
2022/01/03 01:56:16;;;;;;;7.97;3.03;;;;;;;;;;2078117;28;20192;-61
2022/01/03 01:57:17;;;;;;;10.18;3.38;;;;;;;;;;2077448;28;20177;-61
2022/01/03 01:58:34;;;;;;;11.43;3.00;;;;;;;;;;2080309;28;20173;-62
2022/01/03 01:59:37;;;;;;;7.47;2.95;;;;;;;;;;2077173;28;20549;-63
2022/01/03 02:00:43;;;;;;;6.75;2.92;;;;;;;;;;2072285;28;20180;-62
2022/01/03 02:02:06;;;;;;;8.75;2.88;;;;;;;;;;2073144;28;20192;-63
2022/01/03 02:03:09;;;;;;;5.90;2.97;;;;;;;;;;2076845;28;20176;-61
2022/01/03 02:04:31;;;;;;;9.23;3.30;;;;;;;;;;2072741;28;20169;-61
2022/01/03 02:05:52;;;;;;;8.27;2.58;;;;;;;;;;2078999;28;20243;-62
2022/01/03 02:06:54;;;;;;;11.07;3.05;;;;;;;;;;2078787;28;20263;-63
2022/01/03 02:08:03;;;;;;;13.55;3.22;;;;;;;;;;2077301;28;20187;-62
2022/01/03 02:09:05;;;;;;;9.85;4.05;;;;;;;;;;2070244;28;20189;-61
2022/01/03 02:10:13;;;;;;;12.23;3.80;;;;;;;;;;2072500;28;20177;-63
2022/01/03 02:11:21;;;;;;;9.07;2.78;;;;;;;;;;2068925;28;20177;-63
2022/01/03 02:12:26;;;;;;;8.35;3.22;;;;;;;;;;2080357;28;20204;-63
2022/01/03 02:13:27;;;;;;;11.55;3.67;;;;;;;;;;2079891;28;20165;-63
2022/01/03 02:14:36;;;;;;;13.38;3.33;;;;;;;;;;2076370;28;20164;-61
2022/01/03 02:15:38;;;;;;;10.05;3.55;;;;;;;;;;2072479;28;20184;-62
2022/01/03 02:16:41;;;;;;;5.15;2.80;;;;;;;;;;2078384;28;20629;-63
2022/01/03 02:17:44;;;;;;;9.60;3.05;;;;;;;;;;2076077;28;20648;-62
2022/01/03 02:18:45;;;;;;;10.25;3.20;;;;;;;;;;2063517;28;20205;-64
2022/01/03 02:20:05;;;;;;;10.10;3.67;;;;;;;;;;2064845;28;20185;-63
2022/01/03 02:21:06;;;;;;;11.30;2.58;;;;;;;;;;2077033;28;20184;-62
2022/01/03 02:22:10;;;;;;;7.38;3.20;;;;;;;;;;2069632;28;20189;-63
2022/01/03 02:23:16;;;;;;;4.05;2.63;;;;;;;;;;2071272;28;20191;-61
2022/01/03 02:24:18;;;;;;;13.00;3.08;;;;;;;;;;2078476;28;20547;-64
2022/01/03 02:25:21;;;;;;;9.68;3.05;;;;;;;;;;2073319;28;20195;-63
2022/01/03 02:26:21;;;;;;;9.85;3.25;;;;;;;;;;2071586;28;20235;-63
2022/01/03 02:27:22;;;;;;;3.03;2.25;;;;;;;;;;2069225;28;20188;-62
2022/01/03 02:28:23;;;;;;;15.38;4.10;;;;;;;;;;2069251;28;20177;-62
2022/01/03 02:29:25;;;;;;;11.05;2.75;;;;;;;;;;2077559;28;20253;-62
2022/01/03 02:30:26;;;;;;;9.30;3.78;;;;;;;;;;2077994;28;20586;-63
2022/01/03 02:31:27;;;;;;;10.07;3.00;;;;;;;;;;2077498;28;20177;-61
2022/01/03 02:32:27;;;;;;;4.90;2.22;;;;;;;;;;2073473;28;20558;-64
2022/01/03 02:33:28;;;;;;;10.93;3.40;;;;;;;;;;2072198;28;20315;-64
2022/01/03 02:34:29;;;;;;;10.32;3.17;;;;;;;;;;2066871;28;20276;-61
2022/01/03 02:35:34;;;;;;;9.85;3.45;;;;;;;;;;2069855;28;20177;-62
2022/01/03 02:36:36;;;;;;;7.78;3.13;;;;;;;;;;2072085;28;20263;-63
2022/01/03 02:37:37;;;;;;;9.80;3.05;;;;;;;;;;2072477;28;20169;-62
2022/01/03 02:38:38;;;;;;;4.90;2.45;;;;;;;;;;2077080;28;20168;-60
2022/01/03 02:39:38;;;;;;;13.60;3.72;;;;;;;;;;2076997;28;20198;-63
2022/01/03 02:40:38;;;;;;;7.93;4.00;;;;;;;;;;2068937;28;20181;-61
2022/01/03 02:41:39;;;;;;;9.63;3.70;;;;;;;;;;2069776;28;20174;-63
2022/01/03 02:42:40;;;;;;;11.73;4.47;;;;;;;;;;2068879;28;20215;-63
2022/01/03 02:43:40;;;;;;;7.32;3.10;;;;;;;;;;2076165;28;20662;-59
2022/01/03 02:44:42;;;;;;;10.18;3.47;;;;;;;;;;2077477;28;20220;-63
2022/01/03 02:45:42;;;;;;;11.20;4.07;;;;;;;;;;2076745;28;20195;-63
2022/01/03 02:46:43;;;;;;;9.43;3.20;;;;;;;;;;2074694;28;20176;-62
2022/01/03 02:47:45;;;;;;;10.50;3.65;;;;;;;;;;2074624;28;20172;-62
2022/01/03 02:48:46;;;;;;;10.85;3.58;;;;;;;;;;2075062;28;20184;-59
2022/01/03 02:49:46;;;;;;;8.40;3.67;;;;;;;;;;2077937;28;20180;-62
2022/01/03 02:50:46;;;;;;;9.75;3.60;;;;;;;;;;2074699;28;20637;-62
2022/01/03 02:51:49;;;;;;;14.23;3.35;;;;;;;;;;2077368;28;20204;-64
2022/01/03 02:52:52;;;;;;;8.05;3.35;;;;;;;;;;2075694;28;20165;-61
2022/01/03 02:53:53;;;;;;;6.68;3.72;;;;;;;;;;2077660;28;20726;-62
2022/01/03 02:54:56;;;;;;;9.63;3.53;;;;;;;;;;2076277;28;20181;-62
2022/01/03 02:55:56;;;;;;;11.85;3.85;;;;;;;;;;2069004;28;20173;-63
2022/01/03 02:56:58;;;;;;;10.30;3.70;;;;;;;;;;2072077;28;20177;-61
2022/01/03 02:58:06;;;;;;;10.48;3.92;;;;;;;;;;2070764;28;20165;-63
2022/01/03 02:59:13;;;;;;;9.20;3.65;;;;;;;;;;2070064;28;20188;-57
2022/01/03 03:00:16;;;;;;;9.20;3.55;;;;;;;;;;2065466;28;20676;-63
2022/01/03 03:01:16;;;;;;;6.82;3.15;;;;;;;;;;2068680;28;20177;-62
2022/01/03 03:02:23;;;;;;;5.80;3.33;;;;;;;;;;2071550;28;20205;-62
2022/01/03 03:03:23;;;;;;;11.40;4.18;;;;;;;;;;2076886;28;20168;-62
2022/01/03 03:04:26;;;;;;;8.65;3.28;;;;;;;;;;2077588;28;20219;-62
2022/01/03 03:05:26;;;;;;;12.68;4.25;;;;;;;;;;2078936;28;20172;-64
2022/01/03 03:06:29;;;;;;;9.15;4.53;;;;;;;;;;2081136;28;20198;-62
2022/01/03 03:07:29;;;;;;;6.85;3.53;;;;;;;;;;2072629;28;20279;-63
2022/01/03 03:08:30;;;;;;;10.40;3.75;;;;;;;;;;2062043;28;20200;-59
2022/01/03 03:09:31;;;;;;;11.38;3.55;;;;;;;;;;2077104;28;20673;-65
2022/01/03 03:10:31;;;;;;;15.10;4.07;;;;;;;;;;2069673;28;20173;-64
2022/01/03 03:11:35;;;;;;;10.90;3.85;;;;;;;;;;2076712;28;20543;-61
2022/01/03 03:12:35;;;;;;;11.07;3.88;;;;;;;;;;2065773;28;20590;-63
2022/01/03 03:13:36;;;;;;;10.50;3.55;;;;;;;;;;2061017;28;20231;-63
2022/01/03 03:14:38;;;;;;;13.18;4.18;;;;;;;;;;2067081;28;20211;-60
2022/01/03 03:15:39;;;;;;;13.50;4.25;;;;;;;;;;2068925;28;20173;-64
2022/01/03 03:16:40;;;;;;;9.10;3.30;;;;;;;;;;2070711;28;20656;-63
2022/01/03 03:17:41;;;;;;;7.00;3.35;;;;;;;;;;2067234;28;20243;-63
2022/01/03 03:18:44;;;;;;;14.88;3.40;;;;;;;;;;2077940;28;20214;-61
2022/01/03 03:19:52;;;;;;;11.05;3.55;;;;;;;;;;2078899;28;20307;-63
2022/01/03 03:20:54;;;;;;;12.05;3.28;;;;;;;;;;2075235;28;20176;-64
2022/01/03 03:21:55;;;;;;;13.80;4.03;;;;;;;;;;2070194;28;20681;-62
2022/01/03 03:22:56;;;;;;;11.70;3.78;;;;;;;;;;2074552;28;20267;-63
2022/01/03 03:23:59;;;;;;;10.88;3.85;;;;;;;;;;2076026;28;20173;-62
2022/01/03 03:25:07;;;;;;;16.88;4.38;;;;;;;;;;2072004;28;20204;-63
2022/01/03 03:26:08;;;;;;;16.85;3.58;;;;;;;;;;2077177;28;20258;-57
2022/01/03 03:27:09;;;;;;;8.82;4.18;;;;;;;;;;2077241;28;20185;-63
2022/01/03 03:28:11;;;;;;;7.45;2.85;;;;;;;;;;2076064;28;20254;-61
2022/01/03 03:29:11;;;;;;;10.65;4.00;;;;;;;;;;2074576;28;20205;-63
2022/01/03 03:30:13;;;;;;;10.52;4.13;;;;;;;;;;2079206;28;20215;-61
2022/01/03 03:31:14;;;;;;;10.40;3.75;;;;;;;;;;2077336;28;20230;-62
2022/01/03 03:32:16;;;;;;;13.95;4.50;;;;;;;;;;2076493;28;20697;-64
2022/01/03 03:33:18;;;;;;;13.07;4.50;;;;;;;;;;2069734;28;20291;-64
2022/01/03 03:34:22;;;;;;;15.25;4.25;;;;;;;;;;2070241;28;20183;-65
2022/01/03 03:35:23;;;;;;;11.65;3.88;;;;;;;;;;2071041;28;20183;-63
2022/01/03 03:36:23;;;;;;;10.15;3.92;;;;;;;;;;2077311;28;20164;-62
2022/01/03 03:37:23;;;;;;;15.70;4.57;;;;;;;;;;2078114;28;20183;-62
2022/01/03 03:38:25;;;;;;;12.02;4.25;;;;;;;;;;2076718;28;20250;-62
2022/01/03 03:39:26;;;;;;;14.68;4.50;;;;;;;;;;2077594;28;20168;-63
2022/01/03 03:40:26;;;;;;;14.57;4.28;;;;;;;;;;2069128;28;20565;-64
2022/01/03 03:41:26;;;;;;;14.30;4.35;;;;;;;;;;2076762;28;20176;-61
2022/01/03 03:42:29;;;;;;;11.23;3.80;;;;;;;;;;2077103;28;20211;-62
2022/01/03 03:43:30;;;;;;;15.88;4.60;;;;;;;;;;2065931;28;20173;-60
2022/01/03 03:44:32;;;;;;;14.68;4.35;;;;;;;;;;2071862;28;20180;-64
2022/01/03 03:45:34;;;;;;;12.35;4.03;;;;;;;;;;2066863;28;20264;-63
2022/01/03 03:46:35;;;;;;;11.25;3.80;;;;;;;;;;2068929;28;20672;-63
2022/01/03 03:47:37;;;;;;;9.88;3.67;;;;;;;;;;2077892;28;20176;-62
2022/01/03 03:48:39;;;;;;;8.80;3.65;;;;;;;;;;2067015;28;20544;-63
2022/01/03 03:49:39;;;;;;;13.55;3.97;;;;;;;;;;2069934;28;20177;-62
2022/01/03 03:50:40;;;;;;;11.45;3.72;;;;;;;;;;2068235;28;20168;-63
2022/01/03 03:51:41;;;;;;;19.42;4.40;;;;;;;;;;2076407;28;20186;-63
2022/01/03 03:52:41;;;;;;;15.40;4.88;;;;;;;;;;2079023;28;20525;-62
2022/01/03 03:53:42;;;;;;;12.48;3.75;;;;;;;;;;2075524;28;20171;-63
2022/01/03 03:54:42;;;;;;;10.20;4.18;;;;;;;;;;2076656;28;20227;-62
2022/01/03 03:55:44;;;;;;;13.27;4.00;;;;;;;;;;2071544;28;20201;-62
2022/01/03 03:56:44;;;;;;;15.20;3.90;;;;;;;;;;2071570;28;20165;-60
2022/01/03 03:57:44;;;;;;;13.15;5.13;;;;;;;;;;2068682;28;20706;-62
2022/01/03 03:58:45;;;;;;;13.10;4.78;;;;;;;;;;2071753;28;20707;-62
2022/01/03 03:59:45;;;;;;;15.75;4.47;;;;;;;;;;2071563;28;20165;-62
2022/01/03 04:00:46;;;;;;;13.90;4.10;;;;;;;;;;2072069;28;20179;-62
2022/01/03 04:01:46;;;;;;;13.73;4.00;;;;;;;;;;2074073;28;20192;-61
2022/01/03 04:02:46;;;;;;;12.07;3.75;;;;;;;;;;2081290;28;20185;-64
2022/01/03 04:03:49;;;;;;;12.38;4.10;;;;;;;;;;2076077;28;20168;-62
2022/01/03 04:04:50;;;;;;;11.73;4.13;;;;;;;;;;2079792;28;20268;-62
2022/01/03 04:05:51;;;;;;;15.88;4.55;;;;;;;;;;2074863;28;20184;-61
2022/01/03 04:06:51;;;;;;;13.95;4.43;;;;;;;;;;2077647;28;20204;-62
2022/01/03 04:07:52;;;;;;;18.10;4.95;;;;;;;;;;2083463;28;20179;-62
2022/01/03 04:08:54;;;;;;;8.90;3.75;;;;;;;;;;2076071;28;20263;-62
2022/01/03 04:09:54;;;;;;;12.98;4.32;;;;;;;;;;2074954;28;20661;-62
2022/01/03 04:10:54;;;;;;;20.20;4.43;;;;;;;;;;2078053;28;20263;-62
2022/01/03 04:11:55;;;;;;;15.60;4.40;;;;;;;;;;2069883;28;20185;-62
2022/01/03 04:12:55;;;;;;;14.70;4.70;;;;;;;;;;2075238;28;20184;-62
2022/01/03 04:13:55;;;;;;;9.68;3.47;;;;;;;;;;2067781;28;20177;-62
2022/01/03 04:14:55;;;;;;;18.58;3.38;;;;;;;;;;2075063;28;20169;-64
2022/01/03 04:15:56;;;;;;;15.02;4.32;;;;;;;;;;2076321;28;20672;-62
2022/01/03 04:16:56;;;;;;;16.70;4.20;;;;;;;;;;2076764;28;20172;-63
2022/01/03 04:17:57;;;;;;;13.93;4.85;;;;;;;;;;2070064;28;20165;-62
2022/01/03 04:18:57;;;;;;;15.13;4.35;;;;;;;;;;2067946;28;20212;-63
2022/01/03 04:19:58;;;;;;;14.43;4.30;;;;;;;;;;2076044;28;20184;-63
2022/01/03 04:20:58;;;;;;;11.25;4.82;;;;;;;;;;2078814;28;20182;-62
2022/01/03 04:21:59;;;;;;;13.95;3.95;;;;;;;;;;2074767;28;20733;-62
2022/01/03 04:23:00;;;;;;;10.85;4.40;;;;;;;;;;2075479;28;20897;-65
2022/01/03 04:24:01;;;;;;;12.57;4.40;;;;;;;;;;2068565;28;20176;-61
2022/01/03 04:25:01;;;;;;;10.30;4.05;;;;;;;;;;2066564;28;20337;-61
2022/01/03 04:26:04;;;;;;;10.82;3.92;;;;;;;;;;2077304;28;20593;-61
2022/01/03 04:27:04;;;;;;;12.45;4.15;;;;;;;;;;2076919;28;20169;-61
2022/01/03 04:28:05;;;;;;;11.23;3.88;;;;;;;;;;2078496;28;20275;-55
2022/01/03 04:29:05;;;;;;;13.98;4.82;;;;;;;;;;2074542;28;20212;-62
2022/01/03 04:30:06;;;;;;;12.27;4.75;;;;;;;;;;2074076;28;20176;-63
2022/01/03 04:31:06;;;;;;;10.50;3.42;;;;;;;;;;2071324;28;20178;-61
2022/01/03 04:32:08;;;;;;;11.88;4.13;;;;;;;;;;2068918;28;20203;-61
2022/01/03 04:33:08;;;;;;;17.58;5.10;;;;;;;;;;2067390;28;20200;-60
2022/01/03 04:34:09;;;;;;;13.90;5.15;;;;;;;;;;2068559;28;20166;-63
2022/01/03 04:35:09;;;;;;;10.73;4.15;;;;;;;;;;2068160;28;20200;-61
2022/01/03 04:36:10;;;;;;;14.27;4.65;;;;;;;;;;2066612;28;20188;-62
2022/01/03 04:37:13;;;;;;;9.43;3.90;;;;;;;;;;2067666;28;20177;-62
2022/01/03 04:38:13;;;;;;;14.93;4.43;;;;;;;;;;2070775;28;20165;-62
2022/01/03 04:39:14;;;;;;;17.27;4.38;;;;;;;;;;2068496;28;20209;-62
2022/01/03 04:40:15;;;;;;;12.57;4.15;;;;;;;;;;2076571;28;20219;-62
2022/01/03 04:41:15;;;;;;;18.70;5.03;;;;;;;;;;2080022;28;20207;-63
2022/01/03 04:42:16;;;;;;;11.93;4.68;;;;;;;;;;2068957;28;20205;-62
2022/01/03 04:43:17;;;;;;;9.30;4.47;;;;;;;;;;2068483;28;20608;-61
2022/01/03 04:44:18;;;;;;;12.32;3.80;;;;;;;;;;2075391;28;20177;-60
2022/01/03 04:45:18;;;;;;;20.85;5.10;;;;;;;;;;2073900;28;20189;-61
2022/01/03 04:46:18;;;;;;;10.95;4.15;;;;;;;;;;2077331;28;20648;-61
2022/01/03 04:47:18;;;;;;;14.45;4.30;;;;;;;;;;2073989;28;20656;-60
2022/01/03 04:48:19;;;;;;;17.58;4.40;;;;;;;;;;2075041;28;20223;-63
2022/01/03 04:49:20;;;;;;;11.80;4.05;;;;;;;;;;2067833;28;20683;-60
2022/01/03 04:50:21;;;;;;;12.70;4.40;;;;;;;;;;2075155;28;20199;-63
2022/01/03 04:51:21;;;;;;;15.05;4.35;;;;;;;;;;2083165;28;20172;-59
2022/01/03 04:52:21;;;;;;;15.48;4.50;;;;;;;;;;2082256;28;20224;-62
2022/01/03 04:53:25;;;;;;;23.58;4.90;;;;;;;;;;2075869;28;20196;-63
2022/01/03 04:54:26;;;;;;;16.33;4.93;;;;;;;;;;2076925;28;20236;-60
2022/01/03 04:55:26;;;;;;;11.52;4.15;;;;;;;;;;2074993;28;20270;-61
2022/01/03 04:56:27;;;;;;;14.50;4.18;;;;;;;;;;2081614;28;20172;-65
2022/01/03 04:57:28;;;;;;;10.38;3.85;;;;;;;;;;2072900;28;20182;-63
2022/01/03 04:58:28;;;;;;;16.02;4.85;;;;;;;;;;2075187;28;20698;-64
2022/01/03 04:59:29;;;;;;;18.35;4.50;;;;;;;;;;2080299;28;20599;-61
2022/01/03 05:00:29;;;;;;;12.85;4.30;;;;;;;;;;2075642;28;20169;-63
2022/01/03 05:01:29;;;;;;;13.88;4.40;;;;;;;;;;2072930;28;20846;-61
2022/01/03 05:02:30;;;;;;;17.95;3.75;;;;;;;;;;2074880;28;20184;-58
2022/01/03 05:03:32;;;;;;;8.80;2.97;;;;;;;;;;2074881;28;20181;-61
2022/01/03 05:04:32;;;;;;;18.30;5.35;;;;;;;;;;2069662;28;20189;-62
2022/01/03 05:05:33;;;;;;;13.23;3.78;;;;;;;;;;2069952;28;20173;-58
2022/01/03 05:06:33;;;;;;;12.10;4.43;;;;;;;;;;2074744;28;20185;-61
2022/01/03 05:07:33;;;;;;;16.95;5.82;;;;;;;;;;2075819;28;20182;-59
2022/01/03 05:08:34;;;;;;;14.23;4.82;;;;;;;;;;2078370;28;20180;-61
2022/01/03 05:09:34;;;;;;;15.05;4.43;;;;;;;;;;2079673;28;20207;-61
2022/01/03 05:10:34;;;;;;;15.65;5.15;;;;;;;;;;2071245;28;20256;-62
2022/01/03 05:11:35;;;;;;;10.18;3.97;;;;;;;;;;2082641;28;20179;-62
2022/01/03 05:12:35;;;;;;;12.93;5.28;;;;;;;;;;2078082;28;20534;-59
2022/01/03 05:13:35;;;;;;;12.75;4.78;;;;;;;;;;2077452;28;20198;-65
2022/01/03 05:14:36;;;;;;;15.27;4.43;;;;;;;;;;2077094;28;20177;-62
2022/01/03 05:15:37;;;;;;;14.95;5.32;;;;;;;;;;2070491;28;20195;-63
2022/01/03 05:16:37;;;;;;;14.55;4.18;;;;;;;;;;2078804;28;20263;-61
2022/01/03 05:17:38;;;;;;;12.75;4.63;;;;;;;;;;2063723;28;20181;-61
2022/01/03 05:18:39;;;;;;;18.13;5.30;;;;;;;;;;2063505;28;20170;-59
2022/01/03 05:19:39;;;;;;;15.18;4.57;;;;;;;;;;2081299;28;20187;-62
2022/01/03 05:20:40;;;;;;;13.63;4.63;;;;;;;;;;2069225;28;20180;-63
2022/01/03 05:21:41;;;;;;;14.15;4.15;;;;;;;;;;2075325;28;20214;-61
2022/01/03 05:22:41;;;;;;;12.90;4.97;;;;;;;;;;2071442;28;20184;-62
2022/01/03 05:23:43;;;;;;;19.23;5.03;;;;;;;;;;2070987;28;20165;-64
2022/01/03 05:24:44;;;;;;;8.35;3.50;;;;;;;;;;2070190;28;20177;-64
2022/01/03 05:25:45;;;;;;;22.05;4.75;;;;;;;;;;2077989;28;20172;-63
2022/01/03 05:26:46;;;;;;;11.00;3.70;;;;;;;;;;2071012;28;20520;-62
2022/01/03 05:27:46;;;;;;;20.83;4.95;;;;;;;;;;2069865;28;20181;-62
2022/01/03 05:28:47;;;;;;;13.98;4.55;;;;;;;;;;2071604;28;20168;-63
2022/01/03 05:29:47;;;;;;;11.90;3.35;;;;;;;;;;2073380;28;20165;-61
2022/01/03 05:30:48;;;;;;;12.52;3.97;;;;;;;;;;2072772;28;20822;-63
2022/01/03 05:31:48;;;;;;;8.55;3.45;;;;;;;;;;2073251;28;20192;-63
2022/01/03 05:32:48;;;;;;;10.52;3.33;;;;;;;;;;2078626;28;20176;-62
2022/01/03 05:33:49;;;;;;;14.32;3.63;;;;;;;;;;2079093;28;20175;-61
2022/01/03 05:34:49;;;;;;;10.45;4.03;;;;;;;;;;2067778;28;20548;-63
2022/01/03 05:35:50;;;;;;;16.80;4.32;;;;;;;;;;2063486;28;20181;-63
2022/01/03 05:36:50;;;;;;;11.27;3.63;;;;;;;;;;2073798;28;20165;-64
2022/01/03 05:37:51;;;;;;;13.90;3.83;;;;;;;;;;2068152;28;20170;-63
2022/01/03 05:38:51;;;;;;;12.20;4.00;;;;;;;;;;2078192;28;20177;-63
2022/01/03 05:39:53;;;;;;;12.27;4.05;;;;;;;;;;2078714;28;20310;-62
2022/01/03 05:40:53;;;;;;;12.05;5.70;;;;;;;;;;2070497;28;20177;-61
2022/01/03 05:41:53;;;;;;;19.50;5.00;;;;;;;;;;2072901;28;20185;-58
2022/01/03 05:42:54;;;;;;;10.15;3.92;;;;;;;;;;2072316;28;20208;-63
2022/01/03 05:43:56;;;;;;;14.85;3.92;;;;;;;;;;2080545;28;20203;-63
2022/01/03 05:44:57;;;;;;;20.10;5.10;;;;;;;;;;2075891;28;20572;-63
2022/01/03 05:45:57;;;;;;;11.05;4.40;;;;;;;;;;2076727;28;20237;-62
2022/01/03 05:46:58;;;;;;;11.07;4.25;;;;;;;;;;2077506;28;20173;-62
2022/01/03 05:47:58;;;;;;;14.43;5.95;;;;;;;;;;2077292;28;20667;-60
2022/01/03 05:48:58;;;;;;;12.63;5.05;;;;;;;;;;2072607;28;20208;-62
2022/01/03 05:49:59;;;;;;;14.10;4.82;;;;;;;;;;2079399;28;20196;-61
2022/01/03 05:50:59;;;;;;;14.02;5.38;;;;;;;;;;2065860;28;20171;-62
2022/01/03 05:52:00;;;;;;;10.02;4.07;;;;;;;;;;2064324;28;20635;-58
2022/01/03 05:53:01;;;;;;;16.63;4.80;;;;;;;;;;2077241;28;20212;-60
2022/01/03 05:54:01;;;;;;;13.65;4.63;;;;;;;;;;2077348;28;20165;-60
2022/01/03 05:55:03;;;;;;;16.77;4.88;;;;;;;;;;2077371;28;20339;-61
2022/01/03 05:56:05;;;;;;;11.77;4.40;;;;;;;;;;2070697;28;20179;-61
2022/01/03 05:57:06;;;;;;;13.95;4.68;;;;;;;;;;2077066;28;20192;-62
2022/01/03 05:58:08;;;;;;;17.75;4.43;;;;;;;;;;2075994;28;20173;-62
2022/01/03 05:59:09;;;;;;;14.90;4.15;;;;;;;;;;2071454;28;20320;-58
2022/01/03 06:00:15;;;;;;;11.48;4.90;;;;;;;;;;2068719;28;20206;-63
2022/01/03 06:01:15;;;;;;;13.68;4.50;;;;;;;;;;2070201;28;20237;-63
2022/01/03 06:02:15;;;;;;;13.75;4.63;;;;;;;;;;2077422;28;20192;-62
2022/01/03 06:03:19;;;;;;;15.40;4.70;;;;;;;;;;2075368;28;20689;-64
2022/01/03 06:04:22;;;;;;;17.17;4.70;;;;;;;;;;2077213;28;20175;-64
2022/01/03 06:05:52;;;;;;;14.90;5.20;;;;;;;;;;2080833;28;20195;-64
2022/01/03 06:06:58;;;;;;;15.70;4.28;;;;;;;;;;2075511;28;20180;-61
2022/01/03 06:08:08;;;;;;;9.85;3.72;;;;;;;;;;2077940;28;20180;-63
2022/01/03 06:09:16;;;;;;;12.13;4.88;;;;;;;;;;2072470;28;20211;-62
2022/01/03 06:10:17;;;;;;;13.65;4.85;;;;;;;;;;2069553;28;20192;-62
2022/01/03 06:11:19;;;;;;;14.20;4.18;;;;;;;;;;2070102;28;20252;-62
2022/01/03 06:12:19;;;;;;;13.38;4.25;;;;;;;;;;2068827;28;20926;-60